Time;durP1;ratioP1;P1;durP2;ratioP2;P2;SDS_P1;SDS_P2;PMS_P1;PMS_P2;Temp;Humidity;BMP_temperature;BMP_pressure;BME280_temperature;BME280_humidity;BME280_pressure;Samples;Min_cycle;Max_cycle;Signal;HPM_P1;HPM_P2
2023/10/04 00:02:15;;;;;;;;;;;19.50;70.70;;;;;;5092241;28;19920;-65
2023/10/04 00:04:43;;;;;;;;;;;19.50;70.80;;;;;;5091068;28;19927;-65
2023/10/04 00:07:08;;;;;;;;;;;19.50;70.70;;;;;;5092272;28;19923;-65
2023/10/04 00:09:35;;;;;;;;;;;19.50;70.70;;;;;;5092276;28;20283;-65
2023/10/04 00:12:01;;;;;;;;;;;19.50;70.70;;;;;;5090970;28;20363;-65
2023/10/04 00:14:27;;;;;;;;;;;19.40;70.60;;;;;;5091319;28;20049;-65
2023/10/04 00:16:55;;;;;;;;;;;19.50;70.70;;;;;;5090853;28;19998;-66
2023/10/04 00:19:20;;;;;;;;;;;19.50;70.70;;;;;;5092173;28;19916;-66
2023/10/04 00:21:46;;;;;;;;;;;19.40;70.70;;;;;;5092335;28;19926;-65
2023/10/04 00:24:11;;;;;;;;;;;19.40;70.60;;;;;;5090975;28;19927;-65
2023/10/04 00:26:37;;;;;;;;;;;19.40;70.70;;;;;;5091155;28;20335;-66
2023/10/04 00:29:04;;;;;;;;;;;19.40;70.60;;;;;;5090910;28;19916;-65
2023/10/04 00:31:32;;;;;;;;;;;19.40;70.60;;;;;;5091358;28;20343;-65
2023/10/04 00:33:57;;;;;;;;;;;19.40;70.70;;;;;;5092094;28;20367;-65
2023/10/04 00:36:23;;;;;;;;;;;19.40;70.60;;;;;;5092278;28;20169;-65
2023/10/04 00:38:50;;;;;;;;;;;19.40;70.70;;;;;;5092436;28;20351;-65
2023/10/04 00:41:16;;;;;;;;;;;19.40;70.60;;;;;;5091800;28;19981;-66
2023/10/04 00:43:50;;;;;;;;;;;19.40;70.70;;;;;;5090953;28;20288;-66
2023/10/04 00:46:17;;;;;;;;;;;19.40;70.70;;;;;;5090730;28;19916;-66
2023/10/04 00:48:44;;;;;;;;;;;19.40;70.70;;;;;;5091574;28;19916;-65
2023/10/04 00:51:12;;;;;;;;;;;19.40;70.70;;;;;;5094677;28;19959;-66
2023/10/04 00:53:37;;;;;;;;;;;19.40;70.70;;;;;;5094268;28;20015;-66
2023/10/04 00:56:04;;;;;;;;;;;19.40;70.60;;;;;;5094603;28;20002;-66
2023/10/04 00:58:29;;;;;;;;;;;19.40;70.70;;;;;;5094201;28;19916;-66
2023/10/04 01:00:55;;;;;;;;;;;19.30;70.60;;;;;;5094396;28;19969;-65
2023/10/04 01:03:24;;;;;;;;;;;19.30;70.60;;;;;;5093945;28;19923;-66
2023/10/04 01:05:51;;;;;;;;;;;19.30;70.60;;;;;;5094341;28;19923;-65
2023/10/04 01:08:20;;;;;;;;;;;19.30;70.60;;;;;;5094269;28;19919;-65
2023/10/04 01:10:47;;;;;;;;;;;19.30;70.60;;;;;;5094013;28;20367;-65
2023/10/04 01:13:15;;;;;;;;;;;19.30;70.60;;;;;;5095671;28;20398;-66
2023/10/04 01:15:41;;;;;;;;;;;19.40;70.70;;;;;;5095183;28;19923;-66
2023/10/04 01:18:07;;;;;;;;;;;19.30;70.70;;;;;;5094883;28;19915;-66
2023/10/04 01:20:35;;;;;;;;;;;19.30;70.60;;;;;;5094087;28;19969;-65
2023/10/04 01:23:01;;;;;;;;;;;19.30;70.70;;;;;;5095047;28;19924;-65
2023/10/04 01:28:12;;;;;;;;;;;19.30;70.60;;;;;;5130838;27;19910;-65
2023/10/04 01:30:39;;;;;;;;;;;19.30;70.60;;;;;;5129790;28;19939;-65
2023/10/04 01:33:07;;;;;;;;;;;19.30;70.60;;;;;;5129822;28;19922;-65
2023/10/04 01:35:33;;;;;;;;;;;19.30;70.60;;;;;;5129344;28;19915;-65
2023/10/04 01:37:59;;;;;;;;;;;19.20;70.60;;;;;;5129695;28;19969;-65
2023/10/04 01:40:26;;;;;;;;;;;19.30;70.60;;;;;;5129195;28;19969;-65
2023/10/04 01:42:55;;;;;;;;;;;19.20;70.60;;;;;;5129644;28;19954;-65
2023/10/04 01:45:21;;;;;;;;;;;19.20;70.60;;;;;;5130428;27;19960;-65
2023/10/04 01:47:46;;;;;;;;;;;19.20;70.60;;;;;;5130634;27;19923;-65
2023/10/04 01:50:12;;;;;;;;;;;19.20;70.60;;;;;;5130524;27;20329;-66
2023/10/04 01:52:38;;;;;;;;;;;19.20;70.60;;;;;;5129423;28;19916;-65
2023/10/04 01:55:05;;;;;;;;;;;19.20;70.60;;;;;;5129352;28;20406;-65
2023/10/04 01:57:32;;;;;;;;;;;19.20;70.60;;;;;;5129022;28;19970;-66
2023/10/04 01:59:58;;;;;;;;;;;19.20;70.60;;;;;;5130151;28;19922;-66
2023/10/04 02:02:23;;;;;;;;;;;19.20;70.60;;;;;;5129209;28;19916;-65
2023/10/04 02:04:53;;;;;;;;;;;19.20;70.60;;;;;;5129061;28;19927;-65
2023/10/04 02:07:21;;;;;;;;;;;19.20;70.60;;;;;;5130113;27;19943;-65
2023/10/04 02:09:51;;;;;;;;;;;19.20;70.60;;;;;;5128759;28;19922;-66
2023/10/04 02:12:18;;;;;;;;;;;19.20;70.60;;;;;;5128735;28;19916;-65
2023/10/04 02:14:45;;;;;;;;;;;19.20;70.60;;;;;;5128881;28;19916;-65
2023/10/04 02:17:15;;;;;;;;;;;19.20;70.60;;;;;;5128540;28;20346;-65
2023/10/04 02:19:41;;;;;;;;;;;19.20;70.60;;;;;;5129822;27;19916;-65
2023/10/04 02:22:08;;;;;;;;;;;19.20;70.60;;;;;;5129823;27;19923;-65
2023/10/04 02:24:33;;;;;;;;;;;19.20;70.60;;;;;;5128809;28;19922;-65
2023/10/04 02:27:01;;;;;;;;;;;19.20;70.60;;;;;;5128089;28;20426;-65
2023/10/04 02:29:27;;;;;;;;;;;19.20;70.60;;;;;;5129502;27;20424;-65
2023/10/04 02:31:54;;;;;;;;;;;19.10;70.60;;;;;;5128564;28;19930;-66
2023/10/04 02:34:21;;;;;;;;;;;19.10;70.60;;;;;;5129735;27;19919;-65
2023/10/04 02:36:48;;;;;;;;;;;19.20;70.60;;;;;;5129618;27;19915;-66
2023/10/04 02:39:13;;;;;;;;;;;19.10;70.60;;;;;;5115767;28;19916;-66
2023/10/04 02:41:41;;;;;;;;;;;19.10;70.60;;;;;;5114644;28;19927;-66
2023/10/04 02:44:08;;;;;;;;;;;19.10;70.60;;;;;;5114410;28;20359;-65
2023/10/04 02:46:33;;;;;;;;;;;19.10;70.50;;;;;;5115724;28;20014;-65
2023/10/04 02:49:00;;;;;;;;;;;19.10;70.50;;;;;;5115538;28;20015;-66
2023/10/04 02:51:26;;;;;;;;;;;19.20;70.60;;;;;;5115556;27;20044;-65
2023/10/04 02:53:51;;;;;;;;;;;19.30;70.50;;;;;;5114548;28;20045;-65
2023/10/04 02:56:17;;;;;;;;;;;19.70;69.90;;;;;;5114176;28;20383;-71
2023/10/04 02:58:42;;;;;;;;;;;20.10;68.70;;;;;;5114095;28;19915;-65
2023/10/04 03:01:11;;;;;;;;;;;20.80;67.20;;;;;;5115359;28;20255;-65
2023/10/04 03:03:37;;;;;;;;;;;21.60;65.20;;;;;;5115426;28;19981;-65
2023/10/04 03:06:02;;;;;;;;;;;22.40;62.80;;;;;;5114219;28;20386;-66
2023/10/04 03:08:28;;;;;;;;;;;23.10;60.60;;;;;;5115319;28;19916;-65
2023/10/04 03:10:55;;;;;;;;;;;23.80;59.00;;;;;;5113966;28;19926;-65
2023/10/04 03:13:27;;;;;;;;;;;24.30;57.50;;;;;;5115158;28;19916;-65
2023/10/04 03:15:53;;;;;;;;;;;24.70;56.40;;;;;;5114168;28;19954;-65
2023/10/04 03:18:19;;;;;;;;;;;24.90;55.70;;;;;;5114874;28;19954;-65
2023/10/04 03:20:54;;;;;;;;;;;25.00;55.30;;;;;;5114118;28;19962;-69
2023/10/04 03:23:21;;;;;;;;;;;25.00;55.20;;;;;;5113682;28;19919;-65
2023/10/04 03:25:48;;;;;;;;;;;24.90;55.30;;;;;;5114705;28;20007;-65
2023/10/04 03:28:15;;;;;;;;;;;24.70;55.60;;;;;;5096435;28;19961;-65
2023/10/04 03:30:43;;;;;;;;;;;24.50;55.80;;;;;;5114995;28;19916;-66
2023/10/04 03:33:08;;;;;;;;;;;24.30;56.20;;;;;;5096473;28;19915;-66
2023/10/04 03:35:36;;;;;;;;;;;24.10;56.70;;;;;;5114751;28;20011;-66
2023/10/04 03:38:04;;;;;;;;;;;23.90;57.10;;;;;;5096689;28;19939;-66
2023/10/04 03:40:38;;;;;;;;;;;23.70;57.60;;;;;;5096675;28;19927;-72
2023/10/04 03:43:06;;;;;;;;;;;23.50;58.10;;;;;;5096210;28;19920;-65
2023/10/04 03:45:39;;;;;;;;;;;23.20;58.50;;;;;;5096625;28;19923;-66
2023/10/04 03:48:05;;;;;;;;;;;23.00;59.00;;;;;;5114662;28;19920;-66
2023/10/04 03:50:31;;;;;;;;;;;22.90;59.40;;;;;;5095475;28;19923;-65
2023/10/04 03:52:57;;;;;;;;;;;22.70;59.90;;;;;;5114354;28;20370;-65
2023/10/04 03:55:25;;;;;;;;;;;22.50;60.20;;;;;;5096300;28;19923;-66
2023/10/04 03:57:51;;;;;;;;;;;22.30;60.50;;;;;;5096103;28;19924;-65
2023/10/04 04:00:17;;;;;;;;;;;22.20;60.90;;;;;;5096280;28;19915;-65
2023/10/04 04:02:43;;;;;;;;;;;22.10;61.20;;;;;;5096179;28;19923;-65
2023/10/04 04:05:09;;;;;;;;;;;22.00;61.50;;;;;;5096172;28;19923;-65
2023/10/04 04:07:35;;;;;;;;;;;21.80;61.80;;;;;;5095782;28;19920;-65
2023/10/04 04:10:03;;;;;;;;;;;21.70;62.10;;;;;;5095753;28;19923;-66
2023/10/04 04:12:29;;;;;;;;;;;21.60;62.30;;;;;;5114005;28;20265;-65
2023/10/04 04:14:54;;;;;;;;;;;21.50;62.60;;;;;;5096001;28;19916;-65
2023/10/04 04:17:22;;;;;;;;;;;21.40;62.90;;;;;;5095567;28;20278;-65
2023/10/04 04:19:49;;;;;;;;;;;21.30;63.00;;;;;;5095842;28;19915;-65
2023/10/04 04:22:15;;;;;;;;;;;21.20;63.30;;;;;;5095680;28;19916;-66
2023/10/04 04:24:41;;;;;;;;;;;21.20;63.60;;;;;;5095726;28;19922;-65
2023/10/04 04:27:07;;;;;;;;;;;21.20;63.70;;;;;;5113369;28;19919;-66
2023/10/04 04:29:32;;;;;;;;;;;21.30;63.70;;;;;;5113608;28;19915;-65
2023/10/04 04:32:01;;;;;;;;;;;21.40;63.50;;;;;;5095421;28;20393;-71
2023/10/04 04:34:29;;;;;;;;;;;21.50;63.10;;;;;;5113670;28;19916;-65
2023/10/04 04:36:55;;;;;;;;;;;21.60;62.70;;;;;;5095605;28;19922;-65
2023/10/04 04:39:22;;;;;;;;;;;21.70;63.10;;;;;;5113519;28;19916;-66
2023/10/04 04:41:51;;;;;;;;;;;21.80;62.10;;;;;;5095408;28;20006;-65
2023/10/04 04:44:20;;;;;;;;;;;21.90;61.70;;;;;;5113650;28;19916;-65
2023/10/04 04:46:47;;;;;;;;;;;22.00;61.50;;;;;;5113405;28;20313;-65
2023/10/04 04:49:13;;;;;;;;;;;22.00;61.30;;;;;;5095156;28;19919;-65
2023/10/04 04:51:39;;;;;;;;;;;22.10;61.10;;;;;;5095274;28;19923;-66
2023/10/04 04:54:06;;;;;;;;;;;22.10;61.00;;;;;;5095054;28;19934;-66
2023/10/04 04:56:32;;;;;;;;;;;22.10;60.90;;;;;;5095184;28;19916;-66
2023/10/04 04:58:57;;;;;;;;;;;22.10;60.80;;;;;;5095015;28;19969;-69
2023/10/04 05:01:26;;;;;;;;;;;22.10;60.80;;;;;;5128747;27;20282;-65
2023/10/04 05:03:51;;;;;;;;;;;22.10;60.90;;;;;;5094819;28;19916;-69
2023/10/04 05:06:25;;;;;;;;;;;22.10;60.80;;;;;;5094915;28;19972;-65
2023/10/04 05:08:51;;;;;;;;;;;22.10;60.80;;;;;;5095052;28;19984;-65
2023/10/04 05:11:17;;;;;;;;;;;22.10;60.80;;;;;;5094823;28;19943;-65
2023/10/04 05:13:43;;;;;;;;;;;22.00;60.80;;;;;;5094928;28;19916;-65
2023/10/04 05:16:10;;;;;;;;;;;22.00;60.90;;;;;;5094663;28;20363;-66
2023/10/04 05:18:36;;;;;;;;;;;22.00;60.90;;;;;;5094896;28;19915;-70
2023/10/04 05:21:04;;;;;;;;;;;21.90;60.90;;;;;;5095048;28;19915;-65
2023/10/04 05:23:29;;;;;;;;;;;21.90;61.00;;;;;;5094987;28;19915;-65
2023/10/04 05:25:55;;;;;;;;;;;21.90;61.00;;;;;;5110988;28;19922;-65
2023/10/04 05:28:22;;;;;;;;;;;21.80;61.10;;;;;;5093632;28;19926;-66
2023/10/04 05:30:48;;;;;;;;;;;21.80;61.10;;;;;;5125181;28;19916;-66
2023/10/04 05:33:14;;;;;;;;;;;21.70;60.90;;;;;;5109176;28;19915;-66
2023/10/04 05:35:40;;;;;;;;;;;21.60;61.10;;;;;;5111503;28;20427;-71
2023/10/04 05:38:06;;;;;;;;;;;21.50;61.20;;;;;;5111598;28;20288;-66
2023/10/04 05:40:33;;;;;;;;;;;21.40;61.30;;;;;;5091162;28;19919;-69
2023/10/04 05:42:59;;;;;;;;;;;21.40;61.30;;;;;;5091516;28;19963;-66
2023/10/04 05:45:25;;;;;;;;;;;21.30;61.20;;;;;;5125128;28;20005;-66
2023/10/04 05:47:50;;;;;;;;;;;21.20;61.20;;;;;;5088576;28;20415;-66
2023/10/04 05:50:18;;;;;;;;;;;21.20;61.10;;;;;;5089863;28;19975;-66
2023/10/04 05:52:44;;;;;;;;;;;21.20;60.90;;;;;;5090821;28;19927;-66
2023/10/04 05:55:10;;;;;;;;;;;21.20;60.70;;;;;;5109492;28;19934;-66
2023/10/04 05:57:36;;;;;;;;;;;21.30;60.50;;;;;;5108659;28;20202;-66
2023/10/04 06:00:21;;;;;;;;;;;21.30;60.30;;;;;;5104763;28;19932;-66
2023/10/04 06:02:48;;;;;;;;;;;21.30;60.10;;;;;;5084008;28;19920;-66
2023/10/04 06:05:14;;;;;;;;;;;21.30;60.00;;;;;;5079815;28;19953;-66
2023/10/04 06:07:39;;;;;;;;;;;21.30;59.90;;;;;;5098933;28;19928;-66
2023/10/04 06:10:06;;;;;;;;;;;21.40;59.80;;;;;;5080752;28;19924;-66
2023/10/04 06:12:31;;;;;;;;;;;21.50;59.60;;;;;;5078495;28;19932;-66
2023/10/04 06:14:57;;;;;;;;;;;21.50;59.50;;;;;;5084941;28;20297;-66
2023/10/04 06:17:23;;;;;;;;;;;21.50;59.30;;;;;;5083722;27;19990;-65
2023/10/04 06:19:48;;;;;;;;;;;21.60;59.20;;;;;;5095866;27;19919;-65
2023/10/04 06:22:14;;;;;;;;;;;21.60;59.10;;;;;;5109789;27;19969;-66
2023/10/04 06:24:39;;;;;;;;;;;21.70;59.00;;;;;;5092133;28;19931;-66
2023/10/04 06:27:05;;;;;;;;;;;21.80;58.80;;;;;;5083824;28;20253;-67
2023/10/04 06:29:30;;;;;;;;;;;22.00;58.80;;;;;;5104229;27;19920;-70
2023/10/04 06:31:56;;;;;;;;;;;22.00;58.60;;;;;;5097967;28;20038;-68
2023/10/04 06:34:22;;;;;;;;;;;22.00;58.60;;;;;;5100331;27;19924;-67
2023/10/04 06:36:49;;;;;;;;;;;22.00;58.60;;;;;;5096064;28;19920;-67
2023/10/04 06:39:14;;;;;;;;;;;22.00;58.80;;;;;;5097768;27;20500;-67
2023/10/04 06:41:40;;;;;;;;;;;22.00;58.80;;;;;;5096479;28;19981;-68
2023/10/04 06:44:08;;;;;;;;;;;21.90;58.80;;;;;;5098454;28;19977;-69
2023/10/04 06:46:33;;;;;;;;;;;21.90;58.80;;;;;;5096667;28;20544;-67
2023/10/04 06:48:59;;;;;;;;;;;21.90;58.80;;;;;;5096839;27;20127;-70
2023/10/04 06:51:24;;;;;;;;;;;21.90;58.80;;;;;;5097245;27;19924;-68
2023/10/04 06:53:49;;;;;;;;;;;21.90;59.30;;;;;;5096928;28;19932;-68
2023/10/04 06:56:15;;;;;;;;;;;21.90;58.90;;;;;;5093611;27;20469;-67
2023/10/04 06:58:41;;;;;;;;;;;21.80;58.90;;;;;;5099994;27;19924;-66
2023/10/04 07:01:06;;;;;;;;;;;21.80;59.00;;;;;;5126399;27;19931;-67
2023/10/04 07:03:32;;;;;;;;;;;21.90;59.20;;;;;;5096893;27;19927;-67
2023/10/04 07:05:57;;;;;;;;;;;21.80;59.20;;;;;;5101670;27;19930;-67
2023/10/04 07:08:29;;;;;;;;;;;21.70;59.20;;;;;;5128414;27;19920;-66
2023/10/04 07:10:54;;;;;;;;;;;21.70;59.40;;;;;;5099292;27;19931;-69
2023/10/04 07:13:20;;;;;;;;;;;21.70;59.40;;;;;;5099982;27;20018;-67
2023/10/04 07:15:45;;;;;;;;;;;21.60;59.50;;;;;;5101539;27;19945;-67
2023/10/04 07:18:12;;;;;;;;;;;21.60;59.60;;;;;;5098263;27;19923;-67
2023/10/04 07:20:38;;;;;;;;;;;21.60;59.70;;;;;;5101710;27;19938;-71
2023/10/04 07:23:05;;;;;;;;;;;21.60;59.70;;;;;;5103020;27;19919;-67
2023/10/04 07:25:32;;;;;;;;;;;21.60;59.80;;;;;;5102813;27;19920;-70
2023/10/04 07:28:02;;;;;;;;;;;21.60;59.90;;;;;;5098336;27;19928;-66
2023/10/04 07:30:28;;;;;;;;;;;21.60;60.00;;;;;;5098347;27;19920;-66
2023/10/04 07:32:53;;;;;;;;;;;21.60;60.00;;;;;;5098951;27;19976;-66
2023/10/04 07:35:21;;;;;;;;;;;21.60;60.10;;;;;;5098004;27;19923;-66
2023/10/04 07:37:47;;;;;;;;;;;21.60;60.20;;;;;;5103046;27;19924;-65
2023/10/04 07:40:14;;;;;;;;;;;21.60;60.30;;;;;;5096957;27;20101;-67
2023/10/04 07:42:40;;;;;;;;;;;21.60;60.30;;;;;;5099899;27;20330;-68
2023/10/04 07:45:07;;;;;;;;;;;21.60;60.30;;;;;;5102285;27;20367;-67
2023/10/04 07:47:36;;;;;;;;;;;21.60;60.40;;;;;;5099959;27;19927;-67
2023/10/04 07:50:02;;;;;;;;;;;21.50;60.40;;;;;;5097017;27;19924;-67
2023/10/04 07:52:29;;;;;;;;;;;21.50;60.50;;;;;;5126979;27;19923;-67
2023/10/04 07:54:55;;;;;;;;;;;21.40;60.50;;;;;;5100391;27;19930;-65
2023/10/04 07:57:21;;;;;;;;;;;21.40;60.70;;;;;;5098755;27;20443;-66
2023/10/04 07:59:47;;;;;;;;;;;21.40;60.80;;;;;;5095704;27;19980;-66
2023/10/04 08:02:13;;;;;;;;;;;21.40;61.00;;;;;;5104176;27;20332;-66
2023/10/04 08:04:39;;;;;;;;;;;21.40;60.90;;;;;;5096945;27;19928;-68
2023/10/04 08:07:12;;;;;;;;;;;21.30;61.00;;;;;;5098021;27;19971;-68
2023/10/04 08:09:38;;;;;;;;;;;21.30;61.20;;;;;;5100555;27;19940;-70
2023/10/04 08:12:07;;;;;;;;;;;21.30;61.30;;;;;;5095764;27;19923;-68
2023/10/04 08:14:33;;;;;;;;;;;21.40;61.40;;;;;;5099113;27;19964;-68
2023/10/04 08:16:59;;;;;;;;;;;21.30;62.20;;;;;;5097379;27;19943;-66
2023/10/04 08:19:26;;;;;;;;;;;21.30;61.60;;;;;;5096844;27;19924;-67
2023/10/04 08:21:51;;;;;;;;;;;21.30;61.70;;;;;;5093603;27;19927;-67
2023/10/04 08:24:17;;;;;;;;;;;21.30;61.80;;;;;;5132292;27;19923;-68
2023/10/04 08:26:43;;;;;;;;;;;21.30;61.90;;;;;;5110014;27;19928;-73
2023/10/04 08:29:09;;;;;;;;;;;21.20;62.00;;;;;;5096453;27;19924;-67
2023/10/04 08:31:36;;;;;;;;;;;21.10;62.20;;;;;;5103715;27;19921;-68
2023/10/04 08:34:02;;;;;;;;;;;21.10;62.40;;;;;;5097613;27;19928;-68
2023/10/04 08:36:28;;;;;;;;;;;21.00;62.60;;;;;;5082357;27;19924;-67
2023/10/04 08:38:53;;;;;;;;;;;20.90;62.70;;;;;;5085654;28;19924;-66
2023/10/04 08:41:20;;;;;;;;;;;20.90;63.00;;;;;;5088976;27;20667;-66
2023/10/04 08:43:47;;;;;;;;;;;20.80;63.30;;;;;;5094679;27;19946;-67
2023/10/04 08:46:14;;;;;;;;;;;20.80;63.60;;;;;;5090086;27;19978;-67
2023/10/04 08:48:40;;;;;;;;;;;20.70;63.90;;;;;;5091413;27;20706;-65
2023/10/04 08:51:17;;;;;;;;;;;20.70;64.30;;;;;;5121307;27;19937;-70
2023/10/04 08:53:47;;;;;;;;;;;20.60;64.50;;;;;;5094998;27;20771;-67
2023/10/04 08:56:14;;;;;;;;;;;20.60;64.90;;;;;;5122900;27;19967;-68
2023/10/04 08:58:40;;;;;;;;;;;20.50;65.10;;;;;;5091139;27;20633;-68
2023/10/04 09:01:07;;;;;;;;;;;20.50;65.50;;;;;;5090671;27;20388;-67
2023/10/04 09:03:34;;;;;;;;;;;20.50;65.80;;;;;;5093131;28;19928;-67
2023/10/04 09:06:02;;;;;;;;;;;20.50;66.10;;;;;;5097496;27;19953;-68
2023/10/04 09:08:28;;;;;;;;;;;20.50;66.20;;;;;;5097211;27;20363;-68
2023/10/04 09:10:54;;;;;;;;;;;20.40;66.40;;;;;;5093096;27;19928;-68
2023/10/04 09:13:19;;;;;;;;;;;20.40;66.60;;;;;;5094738;28;19928;-74
2023/10/04 09:15:44;;;;;;;;;;;20.40;66.80;;;;;;5099174;28;19919;-67
2023/10/04 09:18:10;;;;;;;;;;;20.40;67.00;;;;;;5122632;27;20073;-67
2023/10/04 09:20:36;;;;;;;;;;;20.40;67.10;;;;;;5092598;28;19927;-67
2023/10/04 09:23:14;;;;;;;;;;;20.40;67.20;;;;;;5092851;28;19924;-66
2023/10/04 09:25:40;;;;;;;;;;;20.40;67.20;;;;;;5099608;28;20358;-67
2023/10/04 09:28:08;;;;;;;;;;;20.40;67.20;;;;;;5103551;28;19928;-70
2023/10/04 09:30:36;;;;;;;;;;;20.40;67.20;;;;;;5079568;28;19926;-68
2023/10/04 09:33:21;;;;;;;;;;;20.40;67.20;;;;;;5079531;28;20480;-70
2023/10/04 09:35:47;;;;;;;;;;;20.30;67.20;;;;;;5084005;28;20446;-68
2023/10/04 09:38:15;;;;;;;;;;;20.30;67.20;;;;;;5078859;28;19919;-70
2023/10/04 09:40:56;;;;;;;;;;;20.30;67.20;;;;;;5094868;28;19924;-67
2023/10/04 09:43:30;;;;;;;;;;;20.30;67.30;;;;;;5076571;28;20020;-66
2023/10/04 09:45:57;;;;;;;;;;;20.30;67.30;;;;;;5094666;28;19923;-67
2023/10/04 09:48:25;;;;;;;;;;;20.30;67.30;;;;;;5082370;27;20310;-68
2023/10/04 09:50:58;;;;;;;;;;;20.30;67.40;;;;;;5083141;28;19930;-68
2023/10/04 09:53:23;;;;;;;;;;;20.20;67.40;;;;;;5084715;27;19931;-68
2023/10/04 09:55:49;;;;;;;;;;;20.20;67.40;;;;;;5095695;27;19923;-73
2023/10/04 09:58:15;;;;;;;;;;;20.20;67.40;;;;;;5081811;28;19924;-68
2023/10/04 10:00:41;;;;;;;;;;;20.20;67.50;;;;;;5099540;27;19920;-68
2023/10/04 10:03:08;;;;;;;;;;;20.20;67.60;;;;;;5070113;28;20264;-68
2023/10/04 10:05:36;;;;;;;;;;;20.20;67.70;;;;;;5090687;27;19919;-68
2023/10/04 10:08:04;;;;;;;;;;;20.20;67.70;;;;;;5075674;28;19958;-68
2023/10/04 10:10:34;;;;;;;;;;;20.30;67.80;;;;;;5080846;27;19923;-67
2023/10/04 10:13:00;;;;;;;;;;;20.30;67.90;;;;;;5093746;28;19977;-74
2023/10/04 10:15:27;;;;;;;;;;;20.30;67.90;;;;;;5104599;27;19920;-71
2023/10/04 10:17:55;;;;;;;;;;;20.30;67.90;;;;;;5098449;27;19920;-67
2023/10/04 10:20:22;;;;;;;;;;;20.40;68.70;;;;;;5098768;27;19924;-70
2023/10/04 10:26:03;;;;;;;;;;;20.40;67.90;;;;;;5095747;27;19924;-70
2023/10/04 10:28:29;;;;;;;;;;;20.40;67.80;;;;;;5111486;28;19925;-67
2023/10/04 10:30:58;;;;;;;;;;;20.40;67.80;;;;;;5088064;28;19932;-71
2023/10/04 10:33:25;;;;;;;;;;;20.40;67.70;;;;;;5082208;28;20259;-70
2023/10/04 10:35:52;;;;;;;;;;;20.40;67.70;;;;;;5085263;28;19923;-66
2023/10/04 10:38:37;;;;;;;;;;;20.40;67.70;;;;;;5082247;28;20935;-66
2023/10/04 10:41:03;;;;;;;;;;;20.40;67.60;;;;;;5108926;28;19927;-67
2023/10/04 10:43:29;;;;;;;;;;;20.40;67.60;;;;;;5082905;28;20287;-68
2023/10/04 10:45:56;;;;;;;;;;;20.40;67.60;;;;;;5091849;28;19924;-67
2023/10/04 10:48:29;;;;;;;;;;;20.40;67.60;;;;;;5105630;28;20595;-71
2023/10/04 10:50:55;;;;;;;;;;;20.40;67.60;;;;;;5079389;28;20146;-67
2023/10/04 10:53:20;;;;;;;;;;;20.40;67.70;;;;;;5081815;28;19920;-66
2023/10/04 10:55:46;;;;;;;;;;;20.40;67.70;;;;;;5084718;28;20270;-69
2023/10/04 10:58:12;;;;;;;;;;;20.40;67.70;;;;;;5084757;28;19970;-72
2023/10/04 11:00:38;;;;;;;;;;;20.40;68.40;;;;;;5081461;28;19920;-66
2023/10/04 11:03:05;;;;;;;;;;;20.40;67.70;;;;;;5088144;28;19935;-71
2023/10/04 11:05:30;;;;;;;;;;;20.50;67.70;;;;;;5088726;28;19920;-71
2023/10/04 11:07:56;;;;;;;;;;;20.50;67.70;;;;;;5082349;28;19978;-70
2023/10/04 11:10:23;;;;;;;;;;;20.50;67.60;;;;;;5082581;28;20300;-69
2023/10/04 11:12:51;;;;;;;;;;;20.50;67.60;;;;;;5082045;28;19920;-71
2023/10/04 11:15:20;;;;;;;;;;;20.40;67.60;;;;;;5078864;28;19925;-72
2023/10/04 11:17:46;;;;;;;;;;;20.40;67.60;;;;;;5083417;28;20325;-67
2023/10/04 11:20:12;;;;;;;;;;;20.40;67.50;;;;;;5078455;28;20023;-67
2023/10/04 11:22:39;;;;;;;;;;;20.50;67.60;;;;;;5080585;28;19924;-69
2023/10/04 11:25:06;;;;;;;;;;;20.40;67.50;;;;;;5092669;28;19924;-72
2023/10/04 11:27:32;;;;;;;;;;;20.40;67.40;;;;;;5086416;28;19967;-71
2023/10/04 11:29:59;;;;;;;;;;;20.40;67.50;;;;;;5103565;28;20473;-70
2023/10/04 11:32:26;;;;;;;;;;;20.40;67.50;;;;;;5112302;28;19926;-71
2023/10/04 11:34:52;;;;;;;;;;;20.40;67.40;;;;;;5093614;28;20382;-66
2023/10/04 11:37:17;;;;;;;;;;;20.40;67.40;;;;;;5075588;28;19978;-71
2023/10/04 11:39:44;;;;;;;;;;;20.40;67.40;;;;;;5071969;28;19920;-71
2023/10/04 11:42:18;;;;;;;;;;;20.40;67.40;;;;;;5077141;28;20411;-68
2023/10/04 11:44:43;;;;;;;;;;;20.40;67.40;;;;;;5078803;28;20014;-72
2023/10/04 11:47:09;;;;;;;;;;;20.50;67.50;;;;;;5106681;28;20438;-72
2023/10/04 11:49:35;;;;;;;;;;;20.50;67.20;;;;;;5093191;28;19969;-70
2023/10/04 11:52:01;;;;;;;;;;;20.60;67.10;;;;;;5095026;28;20316;-68
2023/10/04 11:54:44;;;;;;;;;;;20.70;66.80;;;;;;5088189;28;20319;-68
2023/10/04 11:57:10;;;;;;;;;;;20.80;66.60;;;;;;5090549;28;19966;-68
2023/10/04 11:59:36;;;;;;;;;;;20.80;66.30;;;;;;5091341;28;19932;-67
2023/10/04 12:02:01;;;;;;;;;;;20.90;66.20;;;;;;5092113;28;20252;-68
2023/10/04 12:04:28;;;;;;;;;;;20.90;66.10;;;;;;5104504;28;20313;-67
2023/10/04 12:06:58;;;;;;;;;;;21.00;65.80;;;;;;5106767;28;19920;-71
2023/10/04 12:09:24;;;;;;;;;;;20.90;65.70;;;;;;5091170;28;20283;-68
2023/10/04 12:11:49;;;;;;;;;;;21.00;65.70;;;;;;5071794;28;19920;-67
2023/10/04 12:14:15;;;;;;;;;;;21.00;65.60;;;;;;5106259;28;20430;-74
2023/10/04 12:16:42;;;;;;;;;;;21.00;65.60;;;;;;5089656;28;19928;-73
2023/10/04 12:19:07;;;;;;;;;;;21.00;65.50;;;;;;5097478;28;20015;-74
2023/10/04 12:21:35;;;;;;;;;;;21.00;65.50;;;;;;5090116;28;19999;-72
2023/10/04 12:24:04;;;;;;;;;;;21.00;65.40;;;;;;5072559;28;19950;-67
2023/10/04 12:26:30;;;;;;;;;;;21.00;65.40;;;;;;5072743;28;19928;-71
2023/10/04 12:28:56;;;;;;;;;;;21.00;65.50;;;;;;5100124;28;20055;-71
2023/10/04 12:31:22;;;;;;;;;;;21.00;65.40;;;;;;5104814;28;19934;-67
2023/10/04 12:33:48;;;;;;;;;;;21.00;65.50;;;;;;5074324;28;20341;-67
2023/10/04 12:36:15;;;;;;;;;;;20.90;65.40;;;;;;5091973;28;19920;-72
2023/10/04 12:38:41;;;;;;;;;;;20.90;65.50;;;;;;5092757;28;19920;-67
2023/10/04 12:41:06;;;;;;;;;;;20.80;65.50;;;;;;5092266;28;19927;-72
2023/10/04 12:43:32;;;;;;;;;;;20.80;65.60;;;;;;5074299;28;20289;-73
2023/10/04 12:45:57;;;;;;;;;;;20.80;65.60;;;;;;5105814;28;19920;-67
2023/10/04 12:48:23;;;;;;;;;;;20.80;65.60;;;;;;5071493;28;19927;-67
2023/10/04 12:50:49;;;;;;;;;;;20.80;65.70;;;;;;5070720;28;19920;-66
2023/10/04 12:53:15;;;;;;;;;;;20.70;65.70;;;;;;5074339;28;19920;-67
2023/10/04 12:55:41;;;;;;;;;;;20.70;65.80;;;;;;5089634;28;20023;-68
2023/10/04 12:58:07;;;;;;;;;;;20.70;65.90;;;;;;5073396;28;20439;-69
2023/10/04 13:00:33;;;;;;;;;;;20.70;65.90;;;;;;5105833;28;20497;-68
2023/10/04 13:02:59;;;;;;;;;;;20.70;65.90;;;;;;5073917;28;19965;-69
2023/10/04 13:05:26;;;;;;;;;;;20.70;65.90;;;;;;5077208;28;20447;-73
2023/10/04 13:07:53;;;;;;;;;;;20.70;65.80;;;;;;5087744;28;20383;-71
2023/10/04 13:10:18;;;;;;;;;;;20.70;65.90;;;;;;5051180;28;19920;-67
2023/10/04 13:12:44;;;;;;;;;;;20.70;66.00;;;;;;5053129;28;19921;-67
2023/10/04 13:15:10;;;;;;;;;;;20.60;66.10;;;;;;5090744;28;19927;-71
2023/10/04 13:17:36;;;;;;;;;;;20.60;66.10;;;;;;5070416;28;19924;-67
2023/10/04 13:20:03;;;;;;;;;;;20.60;66.20;;;;;;5052929;28;19943;-71
2023/10/04 13:22:29;;;;;;;;;;;20.60;66.20;;;;;;5052820;28;19927;-70
2023/10/04 13:24:55;;;;;;;;;;;20.50;66.20;;;;;;5072055;28;19924;-67
2023/10/04 13:27:20;;;;;;;;;;;20.50;66.30;;;;;;5054536;28;20348;-67
2023/10/04 13:29:46;;;;;;;;;;;20.50;66.30;;;;;;5070860;28;20425;-71
2023/10/04 13:32:15;;;;;;;;;;;20.50;66.40;;;;;;5071088;28;20414;-67
2023/10/04 13:34:41;;;;;;;;;;;20.40;66.40;;;;;;5054068;28;19920;-67
2023/10/04 13:37:06;;;;;;;;;;;20.40;66.40;;;;;;5053917;28;20268;-66
2023/10/04 13:39:32;;;;;;;;;;;20.40;66.50;;;;;;5053823;28;19920;-67
2023/10/04 13:41:58;;;;;;;;;;;20.40;66.50;;;;;;5053841;28;19943;-67
2023/10/04 13:44:23;;;;;;;;;;;20.40;66.50;;;;;;5087427;28;19924;-67
2023/10/04 13:46:49;;;;;;;;;;;20.40;66.70;;;;;;5087395;28;19971;-71
2023/10/04 13:49:15;;;;;;;;;;;20.40;66.70;;;;;;5071182;28;19920;-71
2023/10/04 13:51:42;;;;;;;;;;;20.30;66.70;;;;;;5087116;28;19927;-68
2023/10/04 13:54:08;;;;;;;;;;;20.30;66.70;;;;;;5053262;28;19925;-67
2023/10/04 13:56:36;;;;;;;;;;;20.30;66.80;;;;;;5087445;28;19928;-67
2023/10/04 13:59:03;;;;;;;;;;;20.30;66.80;;;;;;5053728;28;19920;-67
2023/10/04 14:01:30;;;;;;;;;;;20.30;66.90;;;;;;5054003;28;19978;-67
2023/10/04 14:03:55;;;;;;;;;;;20.30;66.90;;;;;;5071527;28;20395;-67
2023/10/04 14:06:21;;;;;;;;;;;20.20;66.90;;;;;;5053710;28;19928;-67
2023/10/04 14:08:47;;;;;;;;;;;20.20;66.90;;;;;;5070163;28;19926;-67
2023/10/04 14:11:13;;;;;;;;;;;20.20;67.00;;;;;;5052823;28;20291;-67
2023/10/04 14:13:38;;;;;;;;;;;20.20;67.00;;;;;;5053345;28;19967;-67
2023/10/04 14:16:05;;;;;;;;;;;20.20;67.10;;;;;;5053419;28;20384;-67
2023/10/04 14:18:31;;;;;;;;;;;20.10;67.10;;;;;;5071777;28;19962;-67
2023/10/04 14:20:57;;;;;;;;;;;20.20;67.10;;;;;;5072916;28;19948;-67